createdAt,value
2023-04-09T00:00:43.794Z,19.93
2023-04-09T00:01:43.846Z,19.92
2023-04-09T00:02:43.961Z,19.92
2023-04-09T00:03:44.044Z,19.94
2023-04-09T00:04:44.031Z,19.93
2023-04-09T00:05:44.045Z,19.94
2023-04-09T00:06:44.150Z,19.93
2023-04-09T00:07:44.720Z,19.94
2023-04-09T00:08:44.216Z,19.92
2023-04-09T00:09:44.249Z,19.92
2023-04-09T00:10:44.306Z,19.94
2023-04-09T00:11:44.362Z,19.92
2023-04-09T00:12:44.429Z,19.92
2023-04-09T00:13:44.588Z,19.90
2023-04-09T00:14:44.526Z,19.92
2023-04-09T00:15:44.582Z,19.93
2023-04-09T00:16:44.677Z,19.92
2023-04-09T00:17:44.770Z,19.90
2023-04-09T00:18:44.734Z,19.89
2023-04-09T00:19:44.790Z,19.87
2023-04-09T00:20:44.829Z,19.90
2023-04-09T00:21:44.898Z,19.92
2023-04-09T00:22:44.960Z,19.92
2023-04-09T00:23:45.018Z,19.90
2023-04-09T00:24:45.079Z,19.90
2023-04-09T00:25:45.120Z,19.90
2023-04-09T00:26:45.167Z,19.90
2023-04-09T00:27:45.252Z,19.89
2023-04-09T00:28:45.283Z,19.90
2023-04-09T00:29:45.355Z,19.90
2023-04-09T00:30:45.407Z,19.89
2023-04-09T00:31:45.485Z,19.90
2023-04-09T00:32:45.539Z,19.89
2023-04-09T00:33:45.554Z,19.90
2023-04-09T00:34:45.615Z,19.92
2023-04-09T00:35:45.736Z,19.87
2023-04-09T00:36:45.730Z,19.89
2023-04-09T00:37:45.787Z,19.89
2023-04-09T00:38:45.848Z,19.90
2023-04-09T00:39:45.903Z,19.89
2023-04-09T00:40:45.959Z,19.90
2023-04-09T00:41:46.013Z,19.90
2023-04-09T00:42:46.070Z,19.89
2023-04-09T00:43:46.119Z,19.90
2023-04-09T00:44:46.243Z,19.87
2023-04-09T00:45:46.250Z,19.90
2023-04-09T00:46:46.284Z,19.86
2023-04-09T00:47:46.411Z,19.87
2023-04-09T00:48:46.409Z,19.90
2023-04-09T00:49:46.464Z,19.87
2023-04-09T00:50:46.535Z,19.89
2023-04-09T00:51:46.570Z,19.90
2023-04-09T00:52:46.638Z,19.86
2023-04-09T00:53:46.699Z,19.86
2023-04-09T00:54:46.752Z,19.90
2023-04-09T00:55:46.807Z,19.87
2023-04-09T00:56:46.936Z,19.87
2023-04-09T00:57:46.932Z,19.87
2023-04-09T00:58:47.056Z,19.86
2023-04-09T00:59:47.042Z,19.89
2023-04-09T01:00:47.126Z,19.86
2023-04-09T01:01:47.177Z,19.84
2023-04-09T01:02:47.381Z,19.87
2023-04-09T01:03:47.356Z,19.87
2023-04-09T01:04:47.317Z,19.87
2023-04-09T01:05:47.375Z,19.86
2023-04-09T01:06:47.441Z,19.84
2023-04-09T01:07:47.500Z,19.86
2023-04-09T01:08:47.565Z,19.84
2023-04-09T01:09:47.628Z,19.84
2023-04-09T01:10:47.689Z,19.83
2023-04-09T01:11:47.735Z,19.84
2023-04-09T01:12:47.796Z,19.84
2023-04-09T01:13:47.856Z,19.84
2023-04-09T01:14:47.913Z,19.83
2023-04-09T01:15:47.964Z,19.83
2023-04-09T01:16:48.069Z,19.83
2023-04-09T01:17:48.097Z,19.83
2023-04-09T01:18:48.146Z,19.83
2023-04-09T01:19:48.207Z,19.84
2023-04-09T01:20:48.264Z,19.82
2023-04-09T01:21:48.345Z,19.83
2023-04-09T01:22:48.388Z,19.83
2023-04-09T01:23:48.469Z,19.83
2023-04-09T01:24:48.517Z,19.83
2023-04-09T01:25:48.595Z,19.83
2023-04-09T01:26:48.633Z,19.82
2023-04-09T01:27:48.703Z,19.84
2023-04-09T01:28:48.757Z,19.84
2023-04-09T01:29:48.825Z,19.82
2023-04-09T01:30:48.936Z,19.83
2023-04-09T01:31:48.958Z,19.80
2023-04-09T01:32:49.025Z,19.82
2023-04-09T01:33:49.088Z,19.82
2023-04-09T01:34:49.173Z,19.84
2023-04-09T01:35:49.236Z,19.80
2023-04-09T01:36:49.266Z,19.83
2023-04-09T01:37:49.333Z,19.80
2023-04-09T01:38:49.398Z,19.80
2023-04-09T01:39:49.451Z,19.82
2023-04-09T01:40:49.508Z,19.83
2023-04-09T01:41:49.559Z,19.82
2023-04-09T01:42:49.658Z,19.82
2023-04-09T01:43:49.685Z,19.82
2023-04-09T01:44:49.750Z,19.82
2023-04-09T01:45:50.123Z,19.83
2023-04-09T01:46:49.874Z,19.83
2023-04-09T01:47:50.054Z,19.82
2023-04-09T01:48:50.164Z,19.82
2023-04-09T01:49:50.047Z,19.82
2023-04-09T01:50:50.111Z,19.82
2023-04-09T01:51:50.167Z,19.80
2023-04-09T01:52:51.096Z,19.82
2023-04-09T01:53:50.355Z,19.79
2023-04-09T01:54:50.353Z,19.80
2023-04-09T01:55:50.411Z,19.80
2023-04-09T01:56:50.473Z,19.80
2023-04-09T01:57:50.532Z,19.80
2023-04-09T01:58:51.449Z,19.76
2023-04-09T01:59:50.683Z,19.76
2023-04-09T02:00:50.773Z,19.79
2023-04-09T02:01:50.871Z,19.77
2023-04-09T02:02:51.029Z,19.76
2023-04-09T02:03:50.978Z,19.79
2023-04-09T02:04:50.987Z,19.77
2023-04-09T02:05:51.063Z,19.77
2023-04-09T02:06:51.126Z,19.77
2023-04-09T02:07:51.194Z,19.77
2023-04-09T02:08:51.439Z,19.76
2023-04-09T02:09:51.425Z,19.77
2023-04-09T02:10:51.393Z,19.76
2023-04-09T02:11:51.473Z,19.77
2023-04-09T02:12:51.526Z,19.76
2023-04-09T02:13:51.602Z,19.76
2023-04-09T02:14:51.648Z,19.76
2023-04-09T02:15:51.771Z,19.76
2023-04-09T02:16:51.775Z,19.74
2023-04-09T02:17:51.858Z,19.76
2023-04-09T02:18:52.210Z,19.76
2023-04-09T02:19:51.950Z,19.74
2023-04-09T02:20:52.009Z,19.76
2023-04-09T02:21:52.069Z,19.73
2023-04-09T02:22:52.157Z,19.74
2023-04-09T02:23:52.197Z,19.76
2023-04-09T02:24:52.261Z,19.76
2023-04-09T02:25:52.326Z,19.76
2023-04-09T02:26:52.395Z,19.73
2023-04-09T02:27:52.454Z,19.74
2023-04-09T02:28:52.808Z,19.73
2023-04-09T02:29:52.606Z,19.76
2023-04-09T02:30:52.780Z,19.74
2023-04-09T02:31:52.719Z,19.74
2023-04-09T02:32:52.845Z,19.74
2023-04-09T02:33:52.903Z,19.74
2023-04-09T02:34:52.905Z,19.74
2023-04-09T02:35:53.014Z,19.73
2023-04-09T02:36:53.068Z,19.76
2023-04-09T02:37:53.130Z,19.72
2023-04-09T02:38:53.351Z,19.73
2023-04-09T02:39:53.250Z,19.73
2023-04-09T02:40:53.316Z,19.72
2023-04-09T02:41:53.377Z,19.73
2023-04-09T02:42:53.450Z,19.74
2023-04-09T02:43:53.520Z,19.72
2023-04-09T02:44:54.123Z,19.72
2023-04-09T02:45:53.638Z,19.72
2023-04-09T02:46:53.696Z,19.73
2023-04-09T02:47:53.824Z,19.73
2023-04-09T02:48:53.931Z,19.73
2023-04-09T02:49:53.885Z,19.72
2023-04-09T02:50:53.976Z,19.72
2023-04-09T02:51:54.044Z,19.72
2023-04-09T02:52:54.122Z,19.73
2023-04-09T02:53:54.164Z,19.72
2023-04-09T02:54:54.229Z,19.72
2023-04-09T02:55:54.298Z,19.72
2023-04-09T02:56:54.360Z,19.72
2023-04-09T02:57:54.432Z,19.72
2023-04-09T02:58:54.574Z,19.70
2023-04-09T02:59:54.564Z,19.72
2023-04-09T03:00:54.623Z,19.72
2023-04-09T03:01:54.740Z,19.73
2023-04-09T03:02:54.899Z,19.69
2023-04-09T03:03:54.980Z,19.70
2023-04-09T03:04:54.882Z,19.69
2023-04-09T03:05:54.941Z,19.69
2023-04-09T03:06:54.999Z,19.69
2023-04-09T03:07:55.151Z,19.72
2023-04-09T03:08:55.134Z,19.70
2023-04-09T03:09:55.189Z,19.68
2023-04-09T03:10:55.263Z,19.69
2023-04-09T03:11:55.324Z,19.69
2023-04-09T03:12:55.387Z,19.69
2023-04-09T03:13:55.454Z,19.70
2023-04-09T03:14:55.591Z,19.68
2023-04-09T03:15:55.683Z,19.69
2023-04-09T03:16:55.706Z,19.70
2023-04-09T03:17:55.742Z,19.69
2023-04-09T03:18:55.805Z,19.69
2023-04-09T03:19:55.882Z,19.69
2023-04-09T03:20:55.956Z,19.72
2023-04-09T03:21:56.024Z,19.72
2023-04-09T03:22:56.094Z,19.69
2023-04-09T03:23:56.165Z,19.69
2023-04-09T03:24:56.236Z,19.68
2023-04-09T03:25:56.313Z,19.66
2023-04-09T03:26:56.381Z,19.69
2023-04-09T03:27:56.450Z,19.68
2023-04-09T03:28:56.516Z,19.69
2023-04-09T03:29:56.588Z,19.66
2023-04-09T03:30:57.181Z,19.63
2023-04-09T03:31:56.711Z,19.66
2023-04-09T03:32:56.838Z,19.63
2023-04-09T03:33:56.863Z,19.66
2023-04-09T03:34:56.932Z,19.63
2023-04-09T03:35:57.071Z,19.65
2023-04-09T03:36:57.072Z,19.65
2023-04-09T03:37:57.142Z,19.65
2023-04-09T03:38:57.229Z,19.65
2023-04-09T03:39:57.286Z,19.65
2023-04-09T03:40:57.363Z,19.63
2023-04-09T03:41:57.433Z,19.66
2023-04-09T03:42:57.529Z,19.65
2023-04-09T03:43:57.575Z,19.63
2023-04-09T03:44:57.646Z,19.63
2023-04-09T03:45:57.736Z,19.65
2023-04-09T03:46:57.889Z,19.63
2023-04-09T03:47:58.143Z,19.63
2023-04-09T03:48:57.946Z,19.66
2023-04-09T03:49:58.011Z,19.63
2023-04-09T03:50:58.087Z,19.66
2023-04-09T03:51:58.168Z,19.65
2023-04-09T03:52:58.248Z,19.65
2023-04-09T03:53:58.324Z,19.65
2023-04-09T03:54:58.392Z,19.65
2023-04-09T03:55:58.523Z,19.65
2023-04-09T03:56:58.528Z,19.63
2023-04-09T03:57:58.601Z,19.63
2023-04-09T03:58:58.684Z,19.63
2023-04-09T03:59:58.749Z,19.63
2023-04-09T04:00:58.820Z,19.63
2023-04-09T04:01:58.997Z,19.62
2023-04-09T04:02:59.152Z,19.63
2023-04-09T04:03:59.070Z,19.62
2023-04-09T04:04:59.098Z,19.63
2023-04-09T04:05:59.240Z,19.63
2023-04-09T04:06:59.249Z,19.63
2023-04-09T04:07:59.322Z,19.63
2023-04-09T04:08:59.383Z,19.62
2023-04-09T04:09:59.456Z,19.63
2023-04-09T04:10:59.532Z,19.62
2023-04-09T04:11:59.616Z,19.63
2023-04-09T04:12:59.699Z,19.61
2023-04-09T04:13:59.757Z,19.63
2023-04-09T04:14:59.827Z,19.62
2023-04-09T04:15:59.902Z,19.63
2023-04-09T04:16:59.972Z,19.59
2023-04-09T04:18:00.052Z,19.59
2023-04-09T04:19:00.155Z,19.58
2023-04-09T04:20:00.198Z,19.61
2023-04-09T04:21:00.287Z,19.59
2023-04-09T04:22:00.368Z,19.58
2023-04-09T04:23:00.448Z,19.59
2023-04-09T04:24:00.534Z,19.59
2023-04-09T04:25:00.597Z,19.61
2023-04-09T04:26:00.673Z,19.59
2023-04-09T04:27:00.749Z,19.58
2023-04-09T04:28:00.819Z,19.61
2023-04-09T04:29:00.925Z,19.61
2023-04-09T04:30:01.138Z,19.59
2023-04-09T04:31:01.069Z,19.61
2023-04-09T04:32:01.364Z,19.59
2023-04-09T04:33:01.222Z,19.59
2023-04-09T04:34:01.294Z,19.58
2023-04-09T04:35:01.372Z,19.59
2023-04-09T04:36:01.463Z,19.59
2023-04-09T04:37:01.542Z,19.58
2023-04-09T04:38:01.642Z,19.59
2023-04-09T04:39:01.696Z,19.58
2023-04-09T04:40:02.662Z,19.59
2023-04-09T04:41:01.840Z,19.58
2023-04-09T04:42:01.920Z,19.58
2023-04-09T04:43:01.999Z,19.58
2023-04-09T04:44:02.092Z,19.58
2023-04-09T04:45:02.173Z,19.55
2023-04-09T04:46:02.281Z,19.58
2023-04-09T04:47:02.316Z,19.58
2023-04-09T04:48:02.454Z,19.56
2023-04-09T04:49:02.473Z,19.56
2023-04-09T04:50:02.550Z,19.55
2023-04-09T04:51:02.625Z,19.55
2023-04-09T04:52:02.702Z,19.52
2023-04-09T04:53:02.786Z,19.53
2023-04-09T04:54:03.185Z,19.55
2023-04-09T04:55:02.947Z,19.55
2023-04-09T04:56:03.023Z,19.53
2023-04-09T04:57:03.118Z,19.53
2023-04-09T04:58:03.197Z,19.55
2023-04-09T04:59:03.303Z,19.53
2023-04-09T05:00:03.356Z,19.53
2023-04-09T05:01:03.434Z,19.55
2023-04-09T05:02:03.542Z,19.53
2023-04-09T05:03:03.757Z,19.53
2023-04-09T05:04:03.704Z,19.55
2023-04-09T05:05:03.832Z,19.52
2023-04-09T05:06:03.898Z,19.52
2023-04-09T05:07:03.901Z,19.52
2023-04-09T05:08:03.988Z,19.52
2023-04-09T05:09:04.064Z,19.53
2023-04-09T05:10:04.159Z,19.53
2023-04-09T05:11:04.231Z,19.53
2023-04-09T05:12:04.305Z,19.52
2023-04-09T05:13:04.459Z,19.52
2023-04-09T05:14:04.466Z,19.52
2023-04-09T05:15:04.559Z,19.52
2023-04-09T05:16:04.620Z,19.53
2023-04-09T05:17:04.716Z,19.53
2023-04-09T05:18:04.779Z,19.51
2023-04-09T05:19:04.862Z,19.53
2023-04-09T05:20:05.678Z,19.51
2023-04-09T05:21:05.028Z,19.53
2023-04-09T05:22:05.130Z,19.52
2023-04-09T05:23:05.183Z,19.52
2023-04-09T05:24:05.252Z,19.51
2023-04-09T05:25:05.330Z,19.52
2023-04-09T05:26:05.419Z,19.52
2023-04-09T05:27:05.486Z,19.51
2023-04-09T05:28:05.627Z,19.52
2023-04-09T05:29:05.637Z,19.52
2023-04-09T05:30:05.718Z,19.52
2023-04-09T05:31:05.801Z,19.52
2023-04-09T05:32:05.885Z,19.52
2023-04-09T05:33:05.955Z,19.51
2023-04-09T05:34:06.160Z,19.49
2023-04-09T05:35:06.143Z,19.51
2023-04-09T05:36:06.307Z,19.49
2023-04-09T05:37:06.312Z,19.49
2023-04-09T05:38:06.386Z,19.52
2023-04-09T05:39:06.463Z,19.48
2023-04-09T05:40:06.538Z,19.51
2023-04-09T05:41:06.631Z,19.49
2023-04-09T05:42:06.736Z,19.51
2023-04-09T05:43:06.799Z,19.49
2023-04-09T05:44:06.874Z,19.49
2023-04-09T05:45:06.979Z,19.48
2023-04-09T05:46:07.081Z,19.49
2023-04-09T05:47:07.108Z,19.49
2023-04-09T05:48:07.190Z,19.48
2023-04-09T05:49:07.278Z,19.51
2023-04-09T05:50:07.345Z,19.51
2023-04-09T05:51:07.421Z,19.53
2023-04-09T05:52:08.200Z,19.51
2023-04-09T05:53:07.563Z,19.51
2023-04-09T05:54:07.638Z,19.51
2023-04-09T05:55:07.722Z,19.51
2023-04-09T05:56:07.802Z,19.52
2023-04-09T05:57:07.887Z,19.52
2023-04-09T05:58:07.959Z,19.51
2023-04-09T05:59:08.055Z,19.52
2023-04-09T06:00:08.186Z,19.53
2023-04-09T06:01:08.211Z,19.53
2023-04-09T06:02:08.400Z,19.52
2023-04-09T06:03:08.433Z,19.52
2023-04-09T06:04:08.609Z,19.53
2023-04-09T06:05:08.523Z,19.55
2023-04-09T06:06:08.610Z,19.52
2023-04-09T06:07:08.685Z,19.55
2023-04-09T06:08:08.770Z,19.55
2023-04-09T06:09:08.851Z,19.53
2023-04-09T06:10:08.954Z,19.53
2023-04-09T06:11:09.084Z,19.53
2023-04-09T06:12:09.118Z,19.53
2023-04-09T06:13:09.183Z,19.53
2023-04-09T06:14:09.258Z,19.51
2023-04-09T06:15:09.355Z,19.51
2023-04-09T06:16:09.442Z,19.51
2023-04-09T06:17:09.497Z,19.52
2023-04-09T06:18:09.611Z,19.51
2023-04-09T06:19:09.685Z,19.52
2023-04-09T06:20:09.763Z,19.52
2023-04-09T06:21:09.847Z,19.52
2023-04-09T06:22:09.938Z,19.52
2023-04-09T06:23:10.020Z,19.51
2023-04-09T06:24:10.127Z,19.53
2023-04-09T06:25:10.177Z,19.51
2023-04-09T06:26:10.252Z,19.51
2023-04-09T06:27:10.310Z,19.51
2023-04-09T06:28:10.406Z,19.49
2023-04-09T06:29:10.478Z,19.52
2023-04-09T06:30:10.535Z,19.52
2023-04-09T06:31:10.728Z,19.49
2023-04-09T06:32:10.688Z,19.49
2023-04-09T06:33:10.812Z,19.49
2023-04-09T06:34:10.836Z,19.52
2023-04-09T06:35:11.051Z,19.52
2023-04-09T06:36:11.023Z,19.49
2023-04-09T06:37:11.062Z,19.52
2023-04-09T06:38:11.141Z,19.52
2023-04-09T06:39:11.218Z,19.53
2023-04-09T06:40:11.279Z,19.51
2023-04-09T06:41:11.357Z,19.51
2023-04-09T06:42:11.426Z,19.52
2023-04-09T06:43:11.568Z,19.49
2023-04-09T06:44:11.593Z,19.49
2023-04-09T06:45:11.661Z,19.49
2023-04-09T06:46:11.768Z,19.52
2023-04-09T06:47:11.875Z,19.52
2023-04-09T06:48:11.903Z,19.55
2023-04-09T06:49:11.981Z,19.53
2023-04-09T06:50:12.080Z,19.52
2023-04-09T06:51:12.347Z,19.49
2023-04-09T06:52:12.220Z,19.53
2023-04-09T06:53:12.344Z,19.52
2023-04-09T06:54:12.393Z,19.53
2023-04-09T06:55:12.457Z,19.52
2023-04-09T06:56:12.537Z,19.52
2023-04-09T06:57:12.611Z,19.52
2023-04-09T06:58:12.697Z,19.53
2023-04-09T06:59:12.817Z,19.52
2023-04-09T07:00:12.854Z,19.53
2023-04-09T07:01:12.926Z,19.52
2023-04-09T07:02:13.093Z,19.53
2023-04-09T07:03:13.203Z,19.53
2023-04-09T07:04:13.209Z,19.53
2023-04-09T07:05:13.267Z,19.51
2023-04-09T07:06:13.531Z,19.53
2023-04-09T07:07:13.385Z,19.52
2023-04-09T07:08:13.552Z,19.53
2023-04-09T07:09:14.216Z,19.52
2023-04-09T07:10:13.635Z,19.53
2023-04-09T07:11:13.689Z,19.51
2023-04-09T07:12:13.775Z,19.52
2023-04-09T07:13:13.894Z,19.51
2023-04-09T07:14:13.911Z,19.51
2023-04-09T07:15:13.989Z,19.49
2023-04-09T07:16:14.136Z,19.52
2023-04-09T07:17:14.228Z,19.49
2023-04-09T07:18:14.227Z,19.48
2023-04-09T07:19:14.314Z,19.48
2023-04-09T07:20:14.392Z,19.48
2023-04-09T07:21:15.403Z,19.48
2023-04-09T07:22:14.425Z,19.49
2023-04-09T07:23:14.439Z,19.51
2023-04-09T07:24:14.478Z,19.51
2023-04-09T07:25:14.465Z,19.48
2023-04-09T07:26:14.535Z,19.51
2023-04-09T07:27:14.507Z,19.46
2023-04-09T07:28:14.616Z,19.49
2023-04-09T07:29:14.552Z,19.48
2023-04-09T07:30:14.627Z,19.51
2023-04-09T07:31:14.728Z,19.51
2023-04-09T07:32:14.792Z,19.51
2023-04-09T07:33:14.908Z,19.51
2023-04-09T07:34:14.929Z,19.49
2023-04-09T07:35:14.995Z,19.51
2023-04-09T07:36:15.100Z,19.51
2023-04-09T07:37:15.134Z,19.51
2023-04-09T07:38:15.227Z,19.49
2023-04-09T07:39:15.300Z,19.51
2023-04-09T07:40:15.369Z,19.51
2023-04-09T07:41:15.449Z,19.49
2023-04-09T07:42:15.522Z,19.52
2023-04-09T07:43:15.592Z,19.51
2023-04-09T07:44:15.674Z,19.51
2023-04-09T07:45:15.732Z,19.51
2023-04-09T07:46:15.839Z,19.52
2023-04-09T07:47:15.888Z,19.51
2023-04-09T07:48:15.955Z,19.52
2023-04-09T07:49:16.032Z,19.53
2023-04-09T07:50:16.106Z,19.53
2023-04-09T07:51:16.188Z,19.53
2023-04-09T07:52:16.298Z,19.52
2023-04-09T07:53:16.325Z,19.53
2023-04-09T07:54:16.399Z,19.52
2023-04-09T07:55:17.432Z,19.52
2023-04-09T07:56:16.528Z,19.52
2023-04-09T07:57:16.585Z,19.55
2023-04-09T07:58:16.646Z,19.51
2023-04-09T07:59:16.802Z,19.51
2023-04-09T08:00:16.804Z,19.53
2023-04-09T08:01:16.939Z,19.52
2023-04-09T08:02:16.958Z,19.52
2023-04-09T08:03:17.208Z,19.52
2023-04-09T08:04:17.270Z,19.52
2023-04-09T08:05:17.226Z,19.55
2023-04-09T08:06:17.191Z,19.52
2023-04-09T08:07:17.252Z,19.53
2023-04-09T08:08:17.316Z,19.53
2023-04-09T08:09:17.390Z,19.52
2023-04-09T08:10:17.453Z,19.52
2023-04-09T08:11:17.519Z,19.52
2023-04-09T08:12:17.602Z,19.55
2023-04-09T08:13:17.656Z,19.53
2023-04-09T08:14:17.724Z,19.52
2023-04-09T08:15:17.790Z,19.51
2023-04-09T08:16:17.899Z,19.53
2023-04-09T08:17:17.898Z,19.53
2023-04-09T08:18:17.961Z,19.53
2023-04-09T08:19:18.036Z,19.52
2023-04-09T08:20:18.092Z,19.52
2023-04-09T08:21:18.135Z,19.55
2023-04-09T08:22:18.206Z,19.53
2023-04-09T08:23:18.264Z,19.55
2023-04-09T08:24:18.450Z,19.53
2023-04-09T08:25:18.400Z,19.53
2023-04-09T08:26:18.448Z,19.56
2023-04-09T08:27:18.516Z,19.55
2023-04-09T08:28:18.579Z,19.56
2023-04-09T08:29:18.655Z,19.56
2023-04-09T08:30:19.041Z,19.58
2023-04-09T08:31:18.797Z,19.56
2023-04-09T08:32:18.884Z,19.56
2023-04-09T08:33:18.889Z,19.58
2023-04-09T08:34:18.959Z,19.58
2023-04-09T08:35:19.011Z,19.59
2023-04-09T08:36:19.087Z,19.59
2023-04-09T08:37:19.132Z,19.59
2023-04-09T08:38:19.186Z,19.56
2023-04-09T08:39:19.251Z,19.59
2023-04-09T08:40:19.345Z,19.59
2023-04-09T08:41:19.371Z,19.59
2023-04-09T08:42:19.429Z,19.59
2023-04-09T08:43:19.473Z,19.59
2023-04-09T08:44:19.527Z,19.61
2023-04-09T08:45:19.581Z,19.59
2023-04-09T08:46:19.659Z,19.61
2023-04-09T08:47:19.705Z,19.62
2023-04-09T08:48:19.869Z,19.62
2023-04-09T08:49:19.806Z,19.63
2023-04-09T08:50:19.872Z,19.63
2023-04-09T08:51:19.911Z,19.65
2023-04-09T08:52:19.958Z,19.63
2023-04-09T08:53:20.011Z,19.62
2023-04-09T08:54:20.106Z,19.62
2023-04-09T08:55:20.130Z,19.63
2023-04-09T08:56:20.171Z,19.63
2023-04-09T08:57:20.225Z,19.62
2023-04-09T08:58:20.256Z,19.62
2023-04-09T08:59:20.317Z,19.65
2023-04-09T09:00:20.377Z,19.63
2023-04-09T09:01:20.447Z,19.63
2023-04-09T09:02:20.593Z,19.62
2023-04-09T09:03:20.603Z,19.62
2023-04-09T09:04:20.637Z,19.62
2023-04-09T09:05:20.597Z,19.63
2023-04-09T09:06:20.656Z,19.61
2023-04-09T09:07:20.701Z,19.61
2023-04-09T09:08:20.750Z,19.62
2023-04-09T09:09:20.814Z,19.63
2023-04-09T09:10:20.845Z,19.63
2023-04-09T09:11:20.893Z,19.62
2023-04-09T09:12:20.947Z,19.62
2023-04-09T09:13:20.994Z,19.62
2023-04-09T09:14:21.082Z,19.62
2023-04-09T09:15:21.100Z,19.59
2023-04-09T09:16:21.219Z,19.61
2023-04-09T09:17:21.197Z,19.61
2023-04-09T09:18:21.235Z,19.61
2023-04-09T09:19:21.280Z,19.59
2023-04-09T09:20:21.328Z,19.59
2023-04-09T09:21:21.374Z,19.61
2023-04-09T09:22:21.417Z,19.59
2023-04-09T09:23:21.463Z,19.59
2023-04-09T09:24:21.506Z,19.58
2023-04-09T09:25:21.565Z,19.58
2023-04-09T09:26:21.617Z,19.61
2023-04-09T09:27:21.650Z,19.58
2023-04-09T09:28:21.701Z,19.58
2023-04-09T09:29:21.737Z,19.61
2023-04-09T09:30:21.780Z,19.61
2023-04-09T09:31:21.974Z,19.61
2023-04-09T09:32:21.889Z,19.62
2023-04-09T09:33:21.916Z,19.62
2023-04-09T09:34:21.957Z,19.63
2023-04-09T09:35:22.022Z,19.61
2023-04-09T09:36:22.053Z,19.65
2023-04-09T09:37:22.107Z,19.65
2023-04-09T09:38:22.149Z,19.63
2023-04-09T09:39:22.229Z,19.65
2023-04-09T09:40:22.298Z,19.65
2023-04-09T09:41:22.367Z,19.65
2023-04-09T09:42:22.355Z,19.66
2023-04-09T09:43:22.454Z,19.65
2023-04-09T09:44:23.278Z,19.66
2023-04-09T09:45:22.489Z,19.63
2023-04-09T09:46:22.574Z,19.65
2023-04-09T09:47:22.599Z,19.66
2023-04-09T09:48:22.625Z,19.66
2023-04-09T09:49:22.674Z,19.63
2023-04-09T09:50:22.744Z,19.66
2023-04-09T09:51:22.750Z,19.66
2023-04-09T09:52:22.880Z,19.68
2023-04-09T09:53:22.824Z,19.68
2023-04-09T09:54:22.876Z,19.66
2023-04-09T09:55:22.920Z,19.65
2023-04-09T09:56:22.945Z,19.65
2023-04-09T09:57:22.977Z,19.68
2023-04-09T09:58:23.019Z,19.62
2023-04-09T09:59:23.120Z,19.63
2023-04-09T10:00:23.966Z,19.66
2023-04-09T10:01:23.173Z,19.66
2023-04-09T10:02:23.270Z,19.65
2023-04-09T10:03:23.414Z,19.66
2023-04-09T10:04:23.285Z,19.62
2023-04-09T10:05:23.311Z,19.66
2023-04-09T10:06:23.329Z,19.66
2023-04-09T10:07:23.363Z,19.68
2023-04-09T10:08:23.397Z,19.68
2023-04-09T10:09:23.442Z,19.69
2023-04-09T10:10:23.460Z,19.66
2023-04-09T10:11:23.480Z,19.65
2023-04-09T10:12:23.542Z,19.68
2023-04-09T10:13:23.548Z,19.68
2023-04-09T10:14:23.580Z,19.66
2023-04-09T10:15:23.614Z,19.68
2023-04-09T10:16:23.726Z,19.66
2023-04-09T10:17:23.731Z,19.68
2023-04-09T10:18:24.284Z,19.69
2023-04-09T10:19:23.744Z,19.69
2023-04-09T10:20:23.783Z,19.66
2023-04-09T10:21:23.815Z,19.70
2023-04-09T10:22:23.917Z,19.68
2023-04-09T10:23:23.912Z,19.68
2023-04-09T10:24:23.914Z,19.68
2023-04-09T10:25:23.937Z,19.70
2023-04-09T10:26:23.959Z,19.70
2023-04-09T10:27:23.994Z,19.73
2023-04-09T10:28:24.021Z,19.70
2023-04-09T10:29:24.067Z,19.72
2023-04-09T10:30:24.086Z,19.73
2023-04-09T10:31:24.184Z,19.70
2023-04-09T10:32:24.166Z,19.72
2023-04-09T10:33:24.180Z,19.72
2023-04-09T10:34:24.207Z,19.72
2023-04-09T10:35:24.232Z,19.73
2023-04-09T10:36:24.381Z,19.70
2023-04-09T10:37:24.296Z,19.72
2023-04-09T10:38:24.344Z,19.73
2023-04-09T10:39:24.355Z,19.72
2023-04-09T10:40:24.388Z,19.72
2023-04-09T10:41:24.410Z,19.73
2023-04-09T10:42:24.448Z,19.73
2023-04-09T10:43:24.461Z,19.73
2023-04-09T10:44:24.502Z,19.73
2023-04-09T10:45:24.526Z,19.73
2023-04-09T10:46:24.642Z,19.74
2023-04-09T10:47:24.625Z,19.73
2023-04-09T10:48:24.601Z,19.74
2023-04-09T10:49:24.713Z,19.77
2023-04-09T10:50:24.678Z,19.77
2023-04-09T10:51:24.710Z,19.79
2023-04-09T10:52:24.728Z,19.79
2023-04-09T10:53:24.765Z,19.77
2023-04-09T10:54:24.752Z,19.80
2023-04-09T10:55:25.311Z,19.80
2023-04-09T10:56:24.802Z,19.79
2023-04-09T10:57:24.824Z,19.80
2023-04-09T10:58:24.855Z,19.79
2023-04-09T10:59:24.880Z,19.83
2023-04-09T11:00:24.912Z,19.82
2023-04-09T11:01:24.946Z,19.80
2023-04-09T11:02:25.136Z,19.79
2023-04-09T11:03:25.077Z,19.83
2023-04-09T11:04:25.006Z,19.83
2023-04-09T11:05:25.017Z,19.83
2023-04-09T11:06:25.041Z,19.84
2023-04-09T11:07:25.081Z,19.83
2023-04-09T11:08:25.078Z,19.82
2023-04-09T11:09:25.103Z,19.83
2023-04-09T11:10:25.187Z,19.86
2023-04-09T11:11:25.138Z,19.83
2023-04-09T11:12:25.154Z,19.83
2023-04-09T11:13:25.183Z,19.84
2023-04-09T11:14:25.198Z,19.83
2023-04-09T11:15:25.804Z,19.84
2023-04-09T11:16:27.242Z,19.86
2023-04-09T11:17:25.348Z,19.84
2023-04-09T11:18:25.266Z,19.84
2023-04-09T11:19:25.278Z,19.87
2023-04-09T11:20:25.300Z,19.86
2023-04-09T11:21:25.309Z,19.89
2023-04-09T11:22:25.312Z,19.89
2023-04-09T11:23:25.319Z,19.89
2023-04-09T11:24:25.329Z,19.89
2023-04-09T11:25:25.335Z,19.89
2023-04-09T11:26:25.342Z,19.87
2023-04-09T11:27:25.346Z,19.89
2023-04-09T11:28:25.374Z,19.89
2023-04-09T11:29:25.373Z,19.90
2023-04-09T11:30:25.399Z,19.93
2023-04-09T11:31:25.414Z,19.97
2023-04-09T11:32:25.421Z,20.03
2023-04-09T11:33:25.423Z,19.97
2023-04-09T11:34:25.423Z,19.96
2023-04-09T11:35:25.507Z,19.94
2023-04-09T11:36:25.518Z,19.94
2023-04-09T11:37:25.472Z,19.93
2023-04-09T11:38:25.489Z,19.97
2023-04-09T11:39:25.484Z,19.94
2023-04-09T11:40:25.564Z,19.93
2023-04-09T11:41:25.539Z,19.94
2023-04-09T11:42:25.523Z,19.93
2023-04-09T11:43:25.534Z,19.96
2023-04-09T11:44:25.538Z,19.96
2023-04-09T11:45:25.557Z,19.96
2023-04-09T11:46:25.587Z,19.96
2023-04-09T11:47:25.602Z,19.96
2023-04-09T11:48:25.584Z,19.96
2023-04-09T11:49:25.599Z,20.03
2023-04-09T11:50:25.611Z,20.09
2023-04-09T11:51:25.609Z,20.10
2023-04-09T11:52:25.823Z,20.09
2023-04-09T11:53:25.634Z,20.06
2023-04-09T11:54:25.660Z,20.06
2023-04-09T11:55:25.668Z,20.09
2023-04-09T11:56:25.688Z,20.07
2023-04-09T11:57:25.680Z,20.07
2023-04-09T11:58:25.727Z,20.06
2023-04-09T11:59:25.702Z,20.07
2023-04-09T12:00:25.722Z,20.04
2023-04-09T12:01:25.721Z,20.03
2023-04-09T12:02:25.824Z,20.04
2023-04-09T12:03:25.921Z,20.06
2023-04-09T12:04:25.893Z,20.03
2023-04-09T12:05:25.762Z,20.04
2023-04-09T12:06:25.777Z,20.01
2023-04-09T12:07:25.776Z,20.00
2023-04-09T12:08:25.813Z,20.00
2023-04-09T12:09:25.845Z,20.01
2023-04-09T12:10:25.810Z,20.00
2023-04-09T12:11:25.813Z,20.00
2023-04-09T12:12:25.833Z,20.03
2023-04-09T12:13:25.838Z,20.01
2023-04-09T12:14:25.849Z,20.01
2023-04-09T12:15:25.862Z,20.04
2023-04-09T12:16:25.936Z,20.04
2023-04-09T12:17:25.903Z,20.07
2023-04-09T12:18:25.899Z,20.09
2023-04-09T12:19:25.923Z,20.07
2023-04-09T12:20:25.928Z,20.07
2023-04-09T12:21:25.948Z,20.06
2023-04-09T12:22:25.948Z,20.06
2023-04-09T12:23:25.956Z,20.04
2023-04-09T12:24:25.978Z,20.09
2023-04-09T12:25:25.987Z,20.09
2023-04-09T12:26:25.980Z,20.13
2023-04-09T12:27:25.985Z,20.21
2023-04-09T12:28:26.004Z,20.23
2023-04-09T12:29:26.007Z,20.25
2023-04-09T12:30:26.021Z,20.24
2023-04-09T12:31:26.082Z,20.31
2023-04-09T12:32:26.094Z,20.34
2023-04-09T12:33:26.047Z,20.32
2023-04-09T12:34:26.057Z,20.38
2023-04-09T12:35:26.095Z,20.41
2023-04-09T12:36:26.052Z,20.44
2023-04-09T12:37:26.838Z,20.47
2023-04-09T12:38:26.072Z,20.48
2023-04-09T12:39:26.083Z,20.54
2023-04-09T12:40:26.085Z,20.54
2023-04-09T12:41:26.094Z,20.56
2023-04-09T12:42:26.075Z,20.62
2023-04-09T12:43:26.080Z,20.64
2023-04-09T12:44:26.081Z,20.65
2023-04-09T12:45:26.082Z,20.71
2023-04-09T12:46:26.136Z,20.71
2023-04-09T12:47:26.134Z,20.75
2023-04-09T12:48:26.071Z,20.82
2023-04-09T12:49:26.077Z,20.82
2023-04-09T12:50:26.111Z,20.86
2023-04-09T12:51:26.085Z,20.89
2023-04-09T12:52:26.069Z,20.92
2023-04-09T12:53:26.056Z,20.97